createdAt,value
2023-04-20T00:01:05.657Z,5.75
2023-04-20T00:03:08.629Z,4.35
2023-04-20T00:05:13.642Z,4.32
2023-04-20T00:07:16.726Z,4.07
2023-04-20T00:09:20.025Z,4.55
2023-04-20T00:11:22.785Z,6.47
2023-04-20T00:13:25.629Z,3.83
2023-04-20T00:15:28.396Z,5.68
2023-04-20T00:17:31.491Z,3.67
2023-04-20T00:19:34.415Z,4.20
2023-04-20T00:21:38.654Z,4.88
2023-04-20T00:23:42.022Z,4.15
2023-04-20T00:25:44.763Z,5.50
2023-04-20T00:27:47.614Z,3.72
2023-04-20T00:29:50.442Z,4.60
2023-04-20T00:31:53.302Z,4.40
2023-04-20T00:33:56.054Z,4.13
2023-04-20T00:35:58.833Z,5.85
2023-04-20T00:38:03.042Z,4.63
2023-04-20T00:40:07.235Z,4.80
2023-04-20T00:42:10.362Z,4.80
2023-04-20T00:44:14.467Z,4.30
2023-04-20T00:46:17.638Z,4.55
2023-04-20T00:48:20.994Z,4.28
2023-04-20T00:50:24.314Z,4.65
2023-04-20T00:52:27.860Z,4.00
2023-04-20T00:54:33.097Z,5.70
2023-04-20T00:56:36.022Z,4.35
2023-04-20T00:58:38.828Z,4.72
2023-04-20T01:00:41.644Z,4.88
2023-04-20T01:02:46.105Z,8.10
2023-04-20T01:04:49.076Z,5.50
2023-04-20T01:06:52.042Z,4.78
2023-04-20T01:08:56.757Z,4.80
2023-04-20T01:11:00.913Z,4.75
2023-04-20T01:13:04.075Z,5.03
2023-04-20T01:15:10.267Z,5.07
2023-04-20T01:17:13.552Z,4.30
2023-04-20T01:19:21.648Z,7.43
2023-04-20T01:21:25.133Z,5.47
2023-04-20T01:23:29.620Z,4.55
2023-04-20T01:25:32.494Z,4.82
2023-04-20T01:27:35.280Z,8.00
2023-04-20T01:29:38.373Z,4.70
2023-04-20T01:31:41.228Z,5.85
2023-04-20T01:33:44.081Z,5.43
2023-04-20T01:35:48.274Z,4.88
2023-04-20T01:37:51.901Z,5.28
2023-04-20T01:39:56.452Z,6.28
2023-04-20T01:41:59.246Z,5.85
2023-04-20T01:44:02.185Z,5.68
2023-04-20T01:46:05.370Z,5.45
2023-04-20T01:48:08.599Z,5.68
2023-04-20T01:50:12.039Z,5.10
2023-04-20T01:52:14.907Z,4.97
2023-04-20T01:54:17.702Z,5.35
2023-04-20T01:56:21.885Z,5.05
2023-04-20T01:58:25.980Z,5.63
2023-04-20T02:00:28.780Z,8.38
2023-04-20T02:02:31.607Z,6.03
2023-04-20T02:04:34.735Z,5.53
2023-04-20T02:06:37.503Z,5.80
2023-04-20T02:08:40.269Z,5.72
2023-04-20T02:10:43.874Z,6.32
2023-04-20T02:12:49.103Z,5.40
2023-04-20T02:14:52.181Z,6.03
2023-04-20T02:16:57.424Z,5.40
2023-04-20T02:19:00.218Z,5.97
2023-04-20T02:21:03.471Z,5.13
2023-04-20T02:23:06.255Z,4.97
2023-04-20T02:25:11.574Z,5.65
2023-04-20T02:27:17.381Z,5.35
2023-04-20T02:29:21.546Z,5.55
2023-04-20T02:31:24.794Z,5.10
2023-04-20T02:33:27.762Z,6.25
2023-04-20T02:35:30.558Z,6.65
2023-04-20T02:37:33.354Z,8.77
2023-04-20T02:39:36.182Z,6.95
2023-04-20T02:41:38.989Z,6.50
2023-04-20T02:43:41.789Z,5.05
2023-04-20T02:45:47.861Z,5.63
2023-04-20T02:47:51.359Z,6.40
2023-04-20T02:49:54.571Z,4.93
2023-04-20T02:51:57.639Z,5.78
2023-04-20T02:54:00.735Z,4.90
2023-04-20T02:56:05.508Z,5.28
2023-04-20T02:58:17.659Z,7.68
2023-04-20T03:00:40.750Z,7.00
2023-04-20T03:02:46.845Z,5.53
2023-04-20T03:04:50.212Z,6.50
2023-04-20T03:06:56.966Z,5.43
2023-04-20T03:09:04.686Z,6.18
2023-04-20T03:11:23.570Z,6.03
2023-04-20T03:13:26.675Z,4.78
2023-04-20T03:15:36.168Z,6.63
2023-04-20T03:17:49.164Z,5.97
2023-04-20T03:19:53.450Z,5.68
2023-04-20T03:21:56.302Z,5.18
2023-04-20T03:23:59.134Z,4.80
2023-04-20T03:26:02.315Z,6.43
2023-04-20T03:28:25.412Z,5.75
2023-04-20T03:30:28.616Z,6.38
2023-04-20T03:32:53.667Z,6.82
2023-04-20T03:34:56.800Z,5.88
2023-04-20T03:36:59.915Z,6.88
2023-04-20T03:39:02.757Z,7.18
2023-04-20T03:41:08.091Z,6.25
2023-04-20T03:43:12.111Z,6.35
2023-04-20T03:45:15.074Z,8.57
2023-04-20T03:47:18.193Z,6.75
2023-04-20T03:49:25.225Z,6.07
2023-04-20T03:51:28.303Z,5.97
2023-04-20T03:53:31.191Z,9.55
2023-04-20T03:55:34.873Z,10.05
2023-04-20T03:57:41.752Z,8.23
2023-04-20T03:59:45.589Z,5.63
2023-04-20T04:01:53.052Z,6.20
2023-04-20T04:03:56.366Z,6.07
2023-04-20T04:06:00.806Z,6.28
2023-04-20T04:08:04.090Z,5.90
2023-04-20T04:10:09.231Z,5.93
2023-04-20T04:12:12.183Z,7.20
2023-04-20T04:14:16.790Z,6.60
2023-04-20T04:16:20.031Z,6.90
2023-04-20T04:18:23.950Z,5.60
2023-04-20T04:20:28.208Z,7.03
2023-04-20T04:22:32.774Z,5.35
2023-04-20T04:24:55.841Z,8.02
2023-04-20T04:26:59.529Z,6.28
2023-04-20T04:29:05.163Z,7.78
2023-04-20T04:31:09.790Z,9.02
2023-04-20T04:33:14.597Z,6.53
2023-04-20T04:35:20.413Z,7.63
2023-04-20T04:37:23.878Z,7.00
2023-04-20T04:39:32.066Z,9.38
2023-04-20T04:41:49.740Z,6.68
2023-04-20T04:44:01.451Z,6.53
2023-04-20T04:46:10.918Z,7.43
2023-04-20T04:48:14.600Z,9.68
2023-04-20T04:50:17.705Z,6.13
2023-04-20T04:52:21.689Z,7.57
2023-04-20T04:54:24.503Z,7.13
2023-04-20T04:56:28.721Z,7.03
2023-04-20T04:58:32.056Z,6.65
2023-04-20T05:00:34.928Z,7.47
2023-04-20T05:02:37.926Z,8.82
2023-04-20T05:04:40.882Z,5.75
2023-04-20T05:06:43.742Z,7.43
2023-04-20T05:08:47.200Z,6.05
2023-04-20T05:10:50.038Z,7.05
2023-04-20T05:12:54.198Z,6.18
2023-04-20T05:14:56.982Z,8.30
2023-04-20T05:17:00.138Z,6.72
2023-04-20T05:19:03.073Z,6.20
2023-04-20T05:21:05.895Z,6.35
2023-04-20T05:23:08.639Z,6.60
2023-04-20T05:25:13.867Z,7.28
2023-04-20T05:27:16.910Z,7.50
2023-04-20T05:29:21.507Z,9.13
2023-04-20T05:31:24.423Z,6.53
2023-04-20T05:33:27.743Z,8.80
2023-04-20T05:35:30.760Z,7.60
2023-04-20T05:37:34.150Z,7.63
2023-04-20T05:39:38.070Z,6.47
2023-04-20T05:41:41.209Z,7.03
2023-04-20T05:43:43.973Z,9.65
2023-04-20T05:45:49.740Z,7.32
2023-04-20T05:47:56.001Z,8.45
2023-04-20T05:49:58.783Z,9.38
2023-04-20T05:52:01.617Z,10.10
2023-04-20T05:54:04.829Z,6.60
2023-04-20T05:56:08.818Z,7.57
2023-04-20T05:58:11.874Z,10.60
2023-04-20T06:00:17.706Z,7.10
2023-04-20T06:02:22.025Z,6.75
2023-04-20T06:04:25.252Z,7.97
2023-04-20T06:06:28.304Z,9.15
2023-04-20T06:08:31.121Z,13.02
2023-04-20T06:10:35.108Z,11.02
2023-04-20T06:12:38.164Z,8.65
2023-04-20T06:14:41.066Z,9.95
2023-04-20T06:16:43.853Z,9.63
2023-04-20T06:18:48.539Z,7.75
2023-04-20T06:20:51.392Z,10.10
2023-04-20T06:22:54.638Z,8.77
2023-04-20T06:24:59.063Z,6.82
2023-04-20T06:27:02.067Z,6.15
2023-04-20T06:29:04.832Z,10.05
2023-04-20T06:31:07.790Z,6.38
2023-04-20T06:33:13.871Z,8.20
2023-04-20T06:35:18.037Z,10.18
2023-04-20T06:37:20.978Z,6.57
2023-04-20T06:39:24.094Z,10.05
2023-04-20T06:41:26.849Z,7.63
2023-04-20T06:43:29.690Z,9.32
2023-04-20T06:45:34.002Z,6.38
2023-04-20T06:47:37.126Z,10.13
2023-04-20T06:49:40.308Z,6.22
2023-04-20T06:51:44.441Z,6.80
2023-04-20T06:53:47.262Z,6.28
2023-04-20T06:55:50.061Z,8.50
2023-04-20T06:57:52.797Z,6.40
2023-04-20T06:59:55.658Z,8.18
2023-04-20T07:01:58.567Z,8.52
2023-04-20T07:04:01.544Z,6.72
2023-04-20T07:06:04.581Z,8.98
2023-04-20T07:08:09.478Z,6.88
2023-04-20T07:10:15.030Z,7.95
2023-04-20T07:12:17.760Z,6.45
2023-04-20T07:14:20.774Z,7.80
2023-04-20T07:16:23.734Z,7.55
2023-04-20T07:18:26.497Z,11.10
2023-04-20T07:20:29.384Z,10.18
2023-04-20T07:22:32.553Z,6.72
2023-04-20T07:24:36.630Z,6.07
2023-04-20T07:26:39.460Z,6.93
2023-04-20T07:28:42.550Z,7.72
2023-04-20T07:30:45.527Z,9.73
2023-04-20T07:32:48.503Z,8.32
2023-04-20T07:34:53.264Z,6.53
2023-04-20T07:36:56.048Z,8.93
2023-04-20T07:38:58.910Z,6.38
2023-04-20T07:41:03.214Z,7.00
2023-04-20T07:43:05.930Z,6.35
2023-04-20T07:45:09.669Z,7.15
2023-04-20T07:47:12.438Z,7.38
2023-04-20T07:49:15.244Z,8.30
2023-04-20T07:51:18.077Z,8.73
2023-04-20T07:53:20.842Z,9.63
2023-04-20T07:55:23.691Z,6.85
2023-04-20T07:57:28.184Z,7.82
2023-04-20T07:59:31.019Z,9.05
2023-04-20T08:01:33.875Z,12.30
2023-04-20T08:03:37.020Z,13.63
2023-04-20T08:05:40.817Z,9.18
2023-04-20T08:07:43.647Z,9.57
2023-04-20T08:09:46.477Z,11.98
2023-04-20T08:11:49.350Z,7.88
2023-04-20T08:13:53.470Z,7.05
2023-04-20T08:15:56.584Z,9.88
2023-04-20T08:17:59.414Z,11.52
2023-04-20T08:20:02.341Z,8.00
2023-04-20T08:22:06.647Z,8.75
2023-04-20T08:24:10.159Z,8.73
2023-04-20T08:26:16.133Z,11.32
2023-04-20T08:28:32.423Z,6.95
2023-04-20T08:30:37.752Z,9.18
2023-04-20T08:32:41.046Z,9.57
2023-04-20T08:34:43.928Z,9.40
2023-04-20T08:36:46.730Z,8.10
2023-04-20T08:38:58.152Z,9.80
2023-04-20T08:41:01.046Z,8.32
2023-04-20T08:43:03.900Z,9.57
2023-04-20T08:45:07.591Z,8.93
2023-04-20T08:47:12.736Z,11.02
2023-04-20T08:49:17.149Z,10.25
2023-04-20T08:51:19.936Z,10.27
2023-04-20T08:53:22.861Z,9.35
2023-04-20T08:55:26.121Z,9.50
2023-04-20T08:57:29.074Z,9.50
2023-04-20T08:59:32.153Z,10.18
2023-04-20T09:01:36.293Z,13.48
2023-04-20T09:03:42.765Z,10.85
2023-04-20T09:05:46.475Z,10.73
2023-04-20T09:07:53.390Z,10.30
2023-04-20T09:09:56.876Z,11.75
2023-04-20T09:12:03.958Z,10.18
2023-04-20T09:14:10.076Z,9.93
2023-04-20T09:16:13.889Z,10.38
2023-04-20T09:18:17.581Z,10.70
2023-04-20T09:20:30.454Z,10.10
2023-04-20T09:22:35.686Z,10.07
2023-04-20T09:24:40.101Z,9.65
2023-04-20T09:26:42.936Z,11.15
2023-04-20T09:28:46.233Z,10.27
2023-04-20T09:30:51.674Z,10.95
2023-04-20T09:33:04.264Z,8.85
2023-04-20T09:35:08.528Z,10.00
2023-04-20T09:37:16.260Z,10.52
2023-04-20T09:39:20.506Z,8.38
2023-04-20T09:41:23.423Z,10.05
2023-04-20T09:43:30.167Z,11.25
2023-04-20T09:45:33.159Z,13.70
2023-04-20T09:47:36.756Z,8.82
2023-04-20T09:49:39.844Z,10.13
2023-04-20T09:51:45.173Z,11.75
2023-04-20T09:53:52.391Z,8.38
2023-04-20T09:55:56.194Z,10.30
2023-04-20T09:57:59.892Z,9.05
2023-04-20T10:00:06.201Z,9.45
2023-04-20T10:02:10.401Z,15.10
2023-04-20T10:04:14.787Z,11.70
2023-04-20T10:06:25.029Z,10.77
2023-04-20T10:08:27.800Z,9.45
2023-04-20T10:10:32.071Z,8.35
2023-04-20T10:12:37.007Z,11.20
2023-04-20T10:14:39.843Z,8.65
2023-04-20T10:16:43.173Z,12.93
2023-04-20T10:18:57.428Z,12.18
2023-04-20T10:21:07.185Z,11.35
2023-04-20T10:23:11.561Z,9.75
2023-04-20T10:25:19.548Z,8.20
2023-04-20T10:27:23.811Z,7.82
2023-04-20T10:29:27.496Z,8.30
2023-04-20T10:31:37.165Z,9.23
2023-04-20T10:33:50.261Z,7.55
2023-04-20T10:35:55.157Z,8.52
2023-04-20T10:37:58.157Z,8.52
2023-04-20T10:40:01.625Z,9.43
2023-04-20T10:42:04.698Z,7.95
2023-04-20T10:44:11.739Z,7.97
2023-04-20T10:46:15.988Z,8.40
2023-04-20T10:48:18.893Z,11.20
2023-04-20T10:50:21.680Z,8.40
2023-04-20T10:52:34.377Z,7.28
2023-04-20T10:54:38.854Z,8.07
2023-04-20T10:56:43.157Z,8.35
2023-04-20T10:58:45.952Z,8.50
2023-04-20T11:00:58.353Z,9.35
2023-04-20T11:03:01.239Z,7.55
2023-04-20T11:05:12.568Z,8.13
2023-04-20T11:07:15.498Z,10.00
2023-04-20T11:09:22.726Z,8.95
2023-04-20T11:11:27.615Z,7.95
2023-04-20T11:13:30.788Z,7.63
2023-04-20T11:15:34.097Z,8.07
2023-04-20T11:17:39.242Z,9.80
2023-04-20T11:19:42.144Z,8.30
2023-04-20T11:21:44.885Z,8.20
2023-04-20T11:23:47.960Z,8.23
2023-04-20T11:25:52.713Z,7.57
2023-04-20T11:28:07.401Z,7.45
2023-04-20T11:30:11.222Z,7.63
2023-04-20T11:32:14.270Z,7.28
2023-04-20T11:34:19.787Z,7.63
2023-04-20T11:36:23.185Z,7.30
2023-04-20T11:38:29.945Z,8.02
2023-04-20T11:40:32.992Z,7.22
2023-04-20T11:42:35.916Z,7.82
2023-04-20T11:44:41.228Z,7.47
2023-04-20T11:46:44.863Z,6.55
2023-04-20T11:48:47.996Z,6.43
2023-04-20T11:50:52.131Z,6.30
2023-04-20T11:52:54.926Z,6.80
2023-04-20T11:54:57.718Z,6.15
2023-04-20T11:57:00.777Z,9.93
2023-04-20T11:59:03.907Z,6.28
2023-04-20T12:01:06.800Z,5.95
2023-04-20T12:03:09.826Z,8.32
2023-04-20T12:05:13.091Z,5.82
2023-04-20T12:07:17.361Z,6.47
2023-04-20T12:09:20.477Z,7.90
2023-04-20T12:11:23.552Z,7.47
2023-04-20T12:13:26.385Z,5.88
2023-04-20T12:15:29.184Z,6.18
2023-04-20T12:17:32.013Z,5.97
2023-04-20T12:19:34.794Z,6.88
2023-04-20T12:21:37.592Z,6.22
2023-04-20T12:23:42.735Z,5.28
2023-04-20T12:25:45.561Z,5.43
2023-04-20T12:27:49.926Z,5.07
2023-04-20T12:29:52.871Z,5.13
2023-04-20T12:31:55.686Z,5.70
2023-04-20T12:33:58.507Z,4.88
2023-04-20T12:36:01.257Z,5.28
2023-04-20T12:38:04.125Z,5.88
2023-04-20T12:40:10.144Z,6.00
2023-04-20T12:42:12.884Z,5.75
2023-04-20T12:44:16.212Z,5.53
2023-04-20T12:46:19.252Z,6.70
2023-04-20T12:48:22.150Z,6.80
2023-04-20T12:50:25.282Z,6.13
2023-04-20T12:52:29.041Z,6.13
2023-04-20T12:54:31.796Z,6.10
2023-04-20T12:56:35.891Z,6.50
2023-04-20T12:58:38.696Z,7.85
2023-04-20T13:00:42.933Z,8.57
2023-04-20T13:02:45.894Z,7.55
2023-04-20T13:04:48.847Z,8.25
2023-04-20T13:06:51.639Z,6.97
2023-04-20T13:08:54.588Z,7.40
2023-04-20T13:10:57.376Z,6.35
2023-04-20T13:13:01.820Z,7.07
2023-04-20T13:15:04.912Z,7.95
2023-04-20T13:17:07.679Z,8.38
2023-04-20T13:19:10.541Z,7.90
2023-04-20T13:21:13.333Z,8.77
2023-04-20T13:23:16.247Z,8.55
2023-04-20T13:25:19.309Z,8.45
2023-04-20T13:27:22.066Z,12.80
2023-04-20T13:29:26.250Z,8.07
2023-04-20T13:31:29.013Z,8.63
2023-04-20T13:33:31.820Z,8.70
2023-04-20T13:35:34.814Z,8.55
2023-04-20T13:37:39.103Z,7.85
2023-04-20T13:39:42.197Z,9.05
2023-04-20T13:41:45.160Z,8.57
2023-04-20T13:43:47.933Z,9.38
2023-04-20T13:45:52.244Z,9.90
2023-04-20T13:47:55.255Z,10.25
2023-04-20T13:49:58.084Z,9.70
2023-04-20T13:52:00.890Z,9.30
2023-04-20T13:54:03.811Z,10.20
2023-04-20T13:56:07.059Z,9.98
2023-04-20T13:58:09.812Z,9.65
2023-04-20T14:00:13.528Z,10.45
2023-04-20T14:02:17.761Z,17.90
2023-04-20T14:04:20.698Z,10.05
2023-04-20T14:06:23.887Z,11.77
2023-04-20T14:08:26.716Z,15.73
2023-04-20T14:10:29.903Z,17.02
2023-04-20T14:12:33.673Z,25.27
2023-04-20T14:14:36.592Z,22.58
2023-04-20T14:16:44.713Z,13.35
2023-04-20T14:18:48.906Z,12.90
2023-04-20T14:20:52.428Z,9.52
2023-04-20T14:22:55.225Z,9.07
2023-04-20T14:24:57.939Z,9.63
2023-04-20T14:27:01.922Z,9.70
2023-04-20T14:29:04.831Z,9.68
2023-04-20T14:31:07.570Z,10.02
2023-04-20T14:33:10.697Z,9.35
2023-04-20T14:35:14.767Z,11.25
2023-04-20T14:37:17.463Z,10.15
2023-04-20T14:39:20.842Z,11.13
2023-04-20T14:41:23.764Z,9.18
2023-04-20T14:43:26.451Z,8.57
2023-04-20T14:45:29.616Z,10.43
2023-04-20T14:47:32.387Z,10.35
2023-04-20T14:49:35.605Z,9.75
2023-04-20T14:51:39.618Z,9.60
2023-04-20T14:53:42.306Z,10.07
2023-04-20T14:55:45.111Z,10.60
2023-04-20T14:57:47.731Z,10.07
2023-04-20T14:59:50.414Z,10.27
2023-04-20T15:02:01.589Z,10.20
2023-04-20T15:04:05.658Z,10.30
2023-04-20T15:06:09.115Z,10.43
2023-04-20T15:08:13.362Z,8.80
2023-04-20T15:10:16.136Z,10.52
2023-04-20T15:12:19.027Z,8.93
2023-04-20T15:14:21.835Z,9.15
2023-04-20T15:16:24.629Z,7.68
2023-04-20T15:18:27.524Z,9.57
2023-04-20T15:20:30.289Z,7.40
2023-04-20T15:22:33.019Z,8.02
2023-04-20T15:24:37.089Z,63.80
2023-04-20T15:26:39.828Z,34.90
2023-04-20T15:28:42.762Z,24.33
2023-04-20T15:30:45.764Z,17.75
2023-04-20T15:32:48.634Z,11.35
2023-04-20T15:34:51.424Z,8.35
2023-04-20T15:36:54.153Z,7.68
2023-04-20T15:38:57.835Z,7.47
2023-04-20T15:41:02.388Z,8.43
2023-04-20T15:43:05.213Z,9.98
2023-04-20T15:45:09.259Z,8.55
2023-04-20T15:47:12.134Z,9.13
2023-04-20T15:49:15.186Z,10.05
2023-04-20T15:51:20.052Z,8.82
2023-04-20T15:53:24.148Z,12.57
2023-04-20T15:55:27.070Z,10.18
2023-04-20T15:57:31.608Z,15.77
2023-04-20T15:59:34.290Z,11.85
2023-04-20T16:01:37.205Z,11.48
2023-04-20T16:03:40.282Z,11.00
2023-04-20T16:05:43.677Z,10.80
2023-04-20T16:07:46.372Z,11.77
2023-04-20T16:09:49.068Z,10.25
2023-04-20T16:11:51.843Z,10.02
2023-04-20T16:13:57.064Z,13.10
2023-04-20T16:15:59.918Z,14.15
2023-04-20T16:18:04.856Z,15.90
2023-04-20T16:20:09.172Z,15.25
2023-04-20T16:22:12.294Z,17.73
2023-04-20T16:24:15.114Z,14.68
2023-04-20T16:26:18.100Z,13.27
2023-04-20T16:28:20.935Z,12.85
2023-04-20T16:30:25.205Z,11.43
2023-04-20T16:32:29.242Z,14.02
2023-04-20T16:34:31.973Z,12.43
2023-04-20T16:36:35.430Z,12.10
2023-04-20T16:38:38.132Z,11.13
2023-04-20T16:40:42.545Z,11.32
2023-04-20T16:42:45.469Z,10.38
2023-04-20T16:44:48.205Z,9.88
2023-04-20T16:46:52.727Z,9.52
2023-04-20T16:48:55.625Z,10.43
2023-04-20T16:50:58.459Z,15.45
2023-04-20T16:53:01.267Z,11.45
2023-04-20T16:55:04.060Z,13.25
2023-04-20T16:57:06.919Z,13.07
2023-04-20T16:59:10.797Z,11.60
2023-04-20T17:01:14.885Z,11.50
2023-04-20T17:03:19.180Z,11.15
2023-04-20T17:05:22.266Z,15.20
2023-04-20T17:07:25.074Z,14.43
2023-04-20T17:09:27.857Z,14.73
2023-04-20T17:11:34.496Z,13.80
2023-04-20T17:13:37.400Z,12.60
2023-04-20T17:15:42.655Z,11.18
2023-04-20T17:17:45.463Z,10.43
2023-04-20T17:19:49.665Z,9.45
2023-04-20T17:21:52.432Z,9.80
2023-04-20T17:23:55.230Z,17.17
2023-04-20T17:25:58.745Z,21.20
2023-04-20T17:28:02.674Z,22.92
2023-04-20T17:30:06.690Z,19.33
2023-04-20T17:32:09.547Z,15.02
2023-04-20T17:34:12.364Z,12.85
2023-04-20T17:36:16.697Z,9.18
2023-04-20T17:38:19.710Z,10.02
2023-04-20T17:40:22.555Z,13.20
2023-04-20T17:42:25.362Z,13.45
2023-04-20T17:44:28.219Z,14.45
2023-04-20T17:46:31.133Z,13.23
2023-04-20T17:48:34.049Z,20.10
2023-04-20T17:50:37.085Z,41.97
2023-04-20T17:52:41.342Z,36.28
2023-04-20T17:54:44.134Z,20.83
2023-04-20T17:56:46.907Z,14.63
2023-04-20T17:58:49.804Z,13.77
2023-04-20T18:00:52.597Z,13.60
2023-04-20T18:02:55.664Z,11.57
2023-04-20T18:04:59.744Z,16.08
2023-04-20T18:07:02.648Z,12.52
2023-04-20T18:09:06.785Z,15.45
2023-04-20T18:11:09.612Z,16.63
2023-04-20T18:13:12.397Z,11.77
2023-04-20T18:15:15.618Z,10.57
2023-04-20T18:17:18.417Z,9.55
2023-04-20T18:19:21.272Z,8.88
2023-04-20T18:21:24.076Z,8.00
2023-04-20T18:23:29.996Z,8.27
2023-04-20T18:25:34.206Z,9.73
2023-04-20T18:27:37.069Z,10.40
2023-04-20T18:29:39.861Z,9.20
2023-04-20T18:31:43.040Z,12.07
2023-04-20T18:33:46.203Z,12.70
2023-04-20T18:35:49.112Z,17.73
2023-04-20T18:37:53.414Z,18.48
2023-04-20T18:39:56.288Z,19.45
2023-04-20T18:42:00.882Z,17.10
2023-04-20T18:44:04.090Z,12.80
2023-04-20T18:46:06.916Z,13.55
2023-04-20T18:48:09.817Z,13.15
2023-04-20T18:50:12.778Z,10.73
2023-04-20T18:52:15.542Z,10.55
2023-04-20T18:54:18.808Z,9.73
2023-04-20T18:56:21.849Z,9.48
2023-04-20T18:58:26.166Z,9.30
2023-04-20T19:00:28.982Z,8.40
2023-04-20T19:02:32.005Z,9.23
2023-04-20T19:04:36.223Z,8.90
2023-04-20T19:06:39.173Z,9.60
2023-04-20T19:08:41.927Z,9.07
2023-04-20T19:10:44.705Z,10.25
2023-04-20T19:12:47.458Z,10.40
2023-04-20T19:14:51.599Z,10.52
2023-04-20T19:16:54.448Z,9.65
2023-04-20T19:18:57.283Z,16.42
2023-04-20T19:21:00.746Z,26.52
2023-04-20T19:23:03.848Z,20.73
2023-04-20T19:25:07.845Z,28.67
2023-04-20T19:27:10.937Z,13.80
2023-04-20T19:29:13.760Z,21.02
2023-04-20T19:31:18.064Z,14.38
2023-04-20T19:33:21.667Z,11.93
2023-04-20T19:35:24.620Z,10.68
2023-04-20T19:37:27.697Z,10.60
2023-04-20T19:39:30.618Z,10.25
2023-04-20T19:41:33.875Z,10.43
2023-04-20T19:43:37.564Z,10.23
2023-04-20T19:45:40.581Z,10.32
2023-04-20T19:47:45.365Z,10.35
2023-04-20T19:49:48.232Z,10.82
2023-04-20T19:51:50.970Z,10.85
2023-04-20T19:53:54.248Z,11.57
2023-04-20T19:55:57.046Z,11.50
2023-04-20T19:57:59.856Z,11.68
2023-04-20T20:00:04.326Z,11.32
2023-04-20T20:02:15.150Z,12.55
2023-04-20T20:04:20.489Z,12.70
2023-04-20T20:06:23.736Z,12.43
2023-04-20T20:08:26.764Z,13.10
2023-04-20T20:10:29.695Z,13.38
2023-04-20T20:12:32.550Z,14.25
2023-04-20T20:14:37.696Z,13.98
2023-04-20T20:16:40.598Z,12.93
2023-04-20T20:18:43.842Z,12.45
2023-04-20T20:20:48.244Z,12.80
2023-04-20T20:22:51.172Z,13.52
2023-04-20T20:24:54.709Z,12.63
2023-04-20T20:26:57.561Z,13.48
2023-04-20T20:29:00.386Z,13.07
2023-04-20T20:31:03.189Z,16.98
2023-04-20T20:33:06.040Z,14.43
2023-04-20T20:35:11.635Z,15.73
2023-04-20T20:37:16.418Z,15.60
2023-04-20T20:39:19.326Z,13.90
2023-04-20T20:41:22.529Z,15.48
2023-04-20T20:43:25.394Z,17.23
2023-04-20T20:45:29.001Z,16.15
2023-04-20T20:47:31.719Z,15.07
2023-04-20T20:49:34.844Z,16.00
2023-04-20T20:51:37.677Z,15.25
2023-04-20T20:53:41.861Z,16.33
2023-04-20T20:55:44.619Z,14.35
2023-04-20T20:57:47.377Z,14.90
2023-04-20T20:59:53.413Z,14.77
2023-04-20T21:01:56.430Z,16.73
2023-04-20T21:03:59.301Z,20.33
2023-04-20T21:06:02.197Z,32.85
2023-04-20T21:08:05.177Z,20.33
2023-04-20T21:10:11.574Z,16.25
2023-04-20T21:12:14.311Z,14.63
2023-04-20T21:14:17.049Z,14.50
2023-04-20T21:16:20.297Z,14.18
2023-04-20T21:18:23.084Z,14.90
2023-04-20T21:20:25.901Z,14.32
2023-04-20T21:22:28.682Z,13.63
2023-04-20T21:24:31.416Z,14.38
2023-04-20T21:26:36.040Z,14.23
2023-04-20T21:28:38.858Z,14.27
2023-04-20T21:30:41.729Z,15.20
2023-04-20T21:32:44.555Z,15.40
2023-04-20T21:34:47.351Z,15.02
2023-04-20T21:36:50.274Z,17.27
2023-04-20T21:38:53.077Z,16.70
2023-04-20T21:40:55.849Z,17.65
2023-04-20T21:42:59.961Z,16.95
2023-04-20T21:45:03.206Z,16.98
2023-04-20T21:47:06.138Z,17.23
2023-04-20T21:49:08.872Z,17.15
2023-04-20T21:51:16.024Z,17.55
2023-04-20T21:53:18.792Z,15.73
2023-04-20T21:55:21.661Z,15.00
2023-04-20T21:57:24.465Z,15.40
2023-04-20T21:59:28.607Z,14.32
2023-04-20T22:01:31.403Z,20.98
2023-04-20T22:03:36.626Z,17.33
2023-04-20T22:05:40.306Z,16.67
2023-04-20T22:07:43.094Z,23.30
2023-04-20T22:09:45.860Z,35.63
2023-04-20T22:11:49.903Z,25.58
2023-04-20T22:13:52.855Z,20.45
2023-04-20T22:15:57.011Z,18.10
2023-04-20T22:18:00.566Z,20.40
2023-04-20T22:20:04.109Z,21.13
2023-04-20T22:22:06.999Z,22.27
2023-04-20T22:24:09.832Z,17.92
2023-04-20T22:26:12.618Z,19.05
2023-04-20T22:28:15.726Z,17.17
2023-04-20T22:30:18.570Z,17.60
2023-04-20T22:32:22.892Z,18.05
2023-04-20T22:34:25.854Z,18.70
2023-04-20T22:36:28.964Z,15.27
2023-04-20T22:38:32.241Z,15.35
2023-04-20T22:40:35.060Z,15.02
2023-04-20T22:42:37.818Z,13.75
2023-04-20T22:44:40.547Z,15.02
2023-04-20T22:46:43.314Z,19.48
2023-04-20T22:48:48.527Z,15.32
2023-04-20T22:50:52.371Z,14.60
2023-04-20T22:52:55.200Z,16.13
2023-04-20T22:54:58.066Z,15.63
2023-04-20T22:57:02.066Z,17.27
2023-04-20T22:59:05.012Z,15.65
2023-04-20T23:01:07.800Z,17.75
2023-04-20T23:03:10.786Z,16.35
2023-04-20T23:05:20.109Z,16.48
2023-04-20T23:07:23.252Z,15.43
2023-04-20T23:09:26.424Z,15.25
2023-04-20T23:11:29.865Z,15.70
2023-04-20T23:13:33.216Z,15.48
2023-04-20T23:15:35.998Z,17.27
2023-04-20T23:17:38.911Z,15.95
2023-04-20T23:19:41.740Z,17.67
2023-04-20T23:21:45.865Z,15.82
2023-04-20T23:23:49.027Z,15.63
2023-04-20T23:25:51.817Z,15.23
2023-04-20T23:27:54.559Z,14.82
2023-04-20T23:29:57.335Z,15.05
2023-04-20T23:32:00.768Z,15.70
2023-04-20T23:34:03.646Z,14.95
2023-04-20T23:36:06.964Z,15.48
2023-04-20T23:38:11.105Z,15.02
2023-04-20T23:40:13.992Z,15.93
2023-04-20T23:42:16.770Z,16.63
2023-04-20T23:44:19.491Z,16.88
2023-04-20T23:46:22.243Z,16.48
2023-04-20T23:48:25.004Z,19.63
2023-04-20T23:50:27.860Z,17.10
2023-04-20T23:52:30.833Z,17.98
2023-04-20T23:54:35.018Z,17.77
2023-04-20T23:56:37.831Z,17.40
2023-04-20T23:58:40.599Z,19.20
